createdAt,value
2019-03-17T00:00:45.423Z,2.47
2019-03-17T00:03:14.417Z,2.77
2019-03-17T00:05:43.481Z,3.02
2019-03-17T00:08:12.904Z,2.45
2019-03-17T00:10:41.919Z,2.60
2019-03-17T00:13:10.904Z,2.17
2019-03-17T00:15:40.302Z,2.92
2019-03-17T00:18:09.183Z,2.85
2019-03-17T00:20:38.171Z,2.60
2019-03-17T00:23:07.292Z,2.67
2019-03-17T00:25:36.152Z,2.60
2019-03-17T00:28:05.367Z,2.85
2019-03-17T00:30:34.468Z,2.98
2019-03-17T00:33:03.457Z,2.72
2019-03-17T00:35:33.578Z,2.83
2019-03-17T00:38:02.668Z,3.02
2019-03-17T00:40:31.767Z,3.00
2019-03-17T00:43:00.758Z,2.87
2019-03-17T00:45:30.054Z,2.90
2019-03-17T00:47:59.048Z,2.85
2019-03-17T00:50:28.037Z,2.60
2019-03-17T00:52:57.237Z,2.37
2019-03-17T00:55:26.329Z,2.80
2019-03-17T00:57:55.232Z,2.90
2019-03-17T01:00:24.627Z,3.12
2019-03-17T01:02:53.613Z,2.55
2019-03-17T01:05:22.815Z,2.27
2019-03-17T01:07:52.011Z,2.35
2019-03-17T01:10:21.012Z,2.65
2019-03-17T01:12:49.903Z,2.22
2019-03-17T01:15:19.102Z,2.55
2019-03-17T01:17:48.194Z,2.67
2019-03-17T01:20:17.071Z,2.12
2019-03-17T01:22:46.064Z,2.15
2019-03-17T01:25:15.065Z,2.90
2019-03-17T01:27:43.847Z,2.33
2019-03-17T01:30:13.771Z,2.30
2019-03-17T01:32:42.768Z,2.20
2019-03-17T01:35:12.788Z,2.27
2019-03-17T01:37:41.867Z,2.25
2019-03-17T01:40:11.212Z,2.10
2019-03-17T01:42:40.058Z,2.05
2019-03-17T01:45:10.383Z,1.92
2019-03-17T01:47:39.388Z,2.35
2019-03-17T01:50:09.067Z,2.52
2019-03-17T01:52:38.302Z,2.05
2019-03-17T01:55:07.686Z,2.52
2019-03-17T01:57:36.692Z,2.77
2019-03-17T02:00:08.962Z,3.37
2019-03-17T02:02:37.953Z,2.05
2019-03-17T02:05:07.490Z,2.17
2019-03-17T02:07:36.662Z,2.25
2019-03-17T02:10:07.083Z,2.35
2019-03-17T02:12:36.181Z,2.45
2019-03-17T02:15:07.468Z,2.95
2019-03-17T02:17:36.515Z,2.60
2019-03-17T02:20:07.962Z,2.95
2019-03-17T02:22:36.822Z,2.25
2019-03-17T02:25:07.202Z,2.80
2019-03-17T02:27:36.278Z,2.87
2019-03-17T02:30:10.930Z,2.87
2019-03-17T02:32:41.129Z,2.75
2019-03-17T02:35:10.219Z,2.50
2019-03-17T02:37:39.225Z,2.60
2019-03-17T02:40:08.309Z,2.37
2019-03-17T02:42:37.409Z,2.62
2019-03-17T02:45:08.953Z,2.72
2019-03-17T02:47:37.944Z,3.05
2019-03-17T02:50:08.603Z,3.22
2019-03-17T02:52:37.581Z,2.45
2019-03-17T02:55:09.838Z,3.17
2019-03-17T02:57:39.249Z,3.05
2019-03-17T03:00:10.390Z,3.47
2019-03-17T03:02:39.269Z,2.80
2019-03-17T03:05:09.123Z,2.75
2019-03-17T03:07:37.970Z,3.10
2019-03-17T03:10:07.184Z,2.70
2019-03-17T03:12:36.410Z,2.60
2019-03-17T03:15:08.035Z,2.62
2019-03-17T03:17:37.028Z,2.80
2019-03-17T03:20:07.971Z,3.45
2019-03-17T03:25:27.755Z,2.87
2019-03-17T03:27:56.759Z,3.42
2019-03-17T03:30:25.640Z,3.10
2019-03-17T03:32:54.770Z,2.75
2019-03-17T03:35:23.836Z,2.80
2019-03-17T03:37:52.910Z,2.77
2019-03-17T03:40:22.127Z,3.22
2019-03-17T03:42:50.912Z,4.22
2019-03-17T03:48:28.231Z,3.25
2019-03-17T03:50:57.418Z,2.98
2019-03-17T03:53:45.636Z,3.20
2019-03-17T03:56:14.470Z,3.17
2019-03-17T03:58:43.321Z,3.65
2019-03-17T04:01:12.450Z,3.47
2019-03-17T04:03:41.399Z,3.95
2019-03-17T04:06:25.134Z,3.65
2019-03-17T04:08:41.170Z,3.72
2019-03-17T04:11:10.165Z,3.22
2019-03-17T04:13:38.931Z,3.22
2019-03-17T04:16:07.832Z,2.55
2019-03-17T04:18:36.928Z,2.75
2019-03-17T04:21:06.025Z,2.50
2019-03-17T04:23:35.226Z,2.75
2019-03-17T04:26:04.233Z,2.00
2019-03-17T04:28:33.296Z,1.30
2019-03-17T04:31:02.519Z,1.10
2019-03-17T04:33:31.518Z,1.60
2019-03-17T04:36:00.484Z,1.30
2019-03-17T04:38:29.707Z,1.35
2019-03-17T04:40:58.883Z,1.30
2019-03-17T04:43:27.769Z,1.50
2019-03-17T04:45:56.865Z,1.55
2019-03-17T04:48:25.966Z,1.50
2019-03-17T04:50:54.847Z,1.10
2019-03-17T04:53:24.163Z,1.20
2019-03-17T04:55:53.037Z,1.40
2019-03-17T04:58:22.168Z,4.20
2019-03-17T05:00:51.352Z,1.20
2019-03-17T05:03:20.445Z,1.10
2019-03-17T05:05:49.430Z,1.20
2019-03-17T05:08:18.739Z,1.40
2019-03-17T05:10:47.831Z,1.22
2019-03-17T05:13:17.013Z,1.10
2019-03-17T05:15:46.329Z,1.10
2019-03-17T05:18:15.421Z,1.65
2019-03-17T05:20:44.421Z,1.25
2019-03-17T05:23:13.611Z,1.30
2019-03-17T05:25:42.708Z,1.20
2019-03-17T05:28:11.583Z,1.40
2019-03-17T05:30:40.696Z,1.50
2019-03-17T05:33:09.777Z,1.27
2019-03-17T05:35:38.627Z,1.15
2019-03-17T05:38:07.986Z,1.10
2019-03-17T05:40:36.853Z,1.20
2019-03-17T05:43:05.984Z,1.10
2019-03-17T05:45:35.268Z,1.00
2019-03-17T05:48:04.257Z,1.00
2019-03-17T05:50:33.259Z,1.00
2019-03-17T05:53:02.240Z,0.98
2019-03-17T05:55:31.339Z,1.00
2019-03-17T05:58:00.334Z,1.00
2019-03-17T06:00:29.533Z,0.90
2019-03-17T06:02:58.635Z,0.93
2019-03-17T06:05:27.621Z,0.93
2019-03-17T06:07:56.721Z,2.25
2019-03-17T06:10:26.844Z,2.67
2019-03-17T06:12:55.718Z,1.20
2019-03-17T06:15:25.040Z,1.00
2019-03-17T06:17:53.908Z,1.15
2019-03-17T06:20:22.912Z,1.15
2019-03-17T06:22:52.101Z,1.00
2019-03-17T06:25:20.991Z,1.10
2019-03-17T06:27:49.871Z,1.20
2019-03-17T06:30:19.076Z,1.00
2019-03-17T06:32:49.050Z,0.93
2019-03-17T06:35:17.981Z,1.10
2019-03-17T06:37:47.071Z,1.00
2019-03-17T06:40:15.962Z,1.02
2019-03-17T06:42:44.855Z,1.12
2019-03-17T06:45:13.921Z,1.10
2019-03-17T06:47:42.732Z,1.20
2019-03-17T06:50:13.373Z,1.20
2019-03-17T06:52:42.365Z,1.50
2019-03-17T06:55:12.639Z,1.37
2019-03-17T06:57:41.575Z,1.55
2019-03-17T07:00:12.117Z,1.67
2019-03-17T07:02:41.066Z,1.50
2019-03-17T07:05:10.606Z,1.92
2019-03-17T07:07:44.273Z,2.10
2019-03-17T07:10:10.998Z,1.60
2019-03-17T07:12:39.934Z,2.00
2019-03-17T07:15:11.188Z,1.60
2019-03-17T07:17:40.078Z,1.85
2019-03-17T07:20:11.080Z,1.90
2019-03-17T07:22:40.321Z,2.00
2019-03-17T07:25:09.923Z,1.57
2019-03-17T07:27:39.031Z,2.45
2019-03-17T07:30:11.361Z,2.05
2019-03-17T07:32:40.287Z,1.50
2019-03-17T07:35:09.083Z,2.50
2019-03-17T07:37:38.274Z,1.65
2019-03-17T07:40:12.062Z,1.40
2019-03-17T07:42:40.845Z,1.65
2019-03-17T07:45:10.886Z,1.60
2019-03-17T07:47:39.735Z,1.40
2019-03-17T07:50:10.875Z,1.40
2019-03-17T07:52:40.236Z,1.50
2019-03-17T07:55:11.869Z,1.60
2019-03-17T07:57:41.280Z,1.40
2019-03-17T08:00:14.913Z,1.70
2019-03-17T08:03:04.857Z,1.87
2019-03-17T08:05:33.829Z,1.30
2019-03-17T08:08:09.436Z,1.20
2019-03-17T08:10:33.116Z,1.35
2019-03-17T08:13:02.100Z,1.50
2019-03-17T08:15:31.281Z,1.60
2019-03-17T08:18:00.193Z,1.40
2019-03-17T08:20:29.004Z,2.00
2019-03-17T08:22:57.863Z,1.60
2019-03-17T08:25:26.709Z,1.52
2019-03-17T08:27:55.532Z,1.30
2019-03-17T08:30:24.341Z,1.50
2019-03-17T08:32:53.196Z,1.30
2019-03-17T08:35:22.252Z,1.62
2019-03-17T08:37:51.062Z,1.85
2019-03-17T08:40:19.895Z,1.22
2019-03-17T08:42:49.883Z,1.10
2019-03-17T08:45:18.716Z,1.30
2019-03-17T08:47:57.259Z,1.02
2019-03-17T08:50:18.208Z,1.37
2019-03-17T08:52:47.298Z,1.32
2019-03-17T08:55:16.285Z,1.72
2019-03-17T08:57:45.479Z,1.30
2019-03-17T09:00:16.099Z,1.45
2019-03-17T09:02:45.300Z,1.07
2019-03-17T09:05:14.399Z,1.30
2019-03-17T09:07:44.160Z,1.30
2019-03-17T09:10:15.022Z,1.55
2019-03-17T09:12:44.254Z,1.07
2019-03-17T09:15:13.234Z,0.72
2019-03-17T09:17:42.234Z,0.90
2019-03-17T09:20:17.586Z,0.90
2019-03-17T09:22:46.579Z,1.35
2019-03-17T09:25:15.875Z,1.20
2019-03-17T09:27:44.863Z,1.30
2019-03-17T09:30:16.187Z,1.00
2019-03-17T09:32:45.093Z,1.10
2019-03-17T09:35:14.538Z,1.30
2019-03-17T09:37:43.474Z,1.30
2019-03-17T09:40:16.897Z,1.20
2019-03-17T09:42:45.875Z,1.30
2019-03-17T09:45:15.806Z,0.90
2019-03-17T09:47:44.686Z,1.30
2019-03-17T09:50:21.157Z,1.20
2019-03-17T09:52:50.030Z,1.40
2019-03-17T09:55:18.881Z,1.30
2019-03-17T09:57:48.058Z,1.30
2019-03-17T10:00:21.436Z,1.22
2019-03-17T10:02:50.290Z,1.20
2019-03-17T10:05:19.568Z,1.60
2019-03-17T10:07:48.381Z,1.40
2019-03-17T10:10:24.493Z,1.20
2019-03-17T10:12:53.361Z,1.02
2019-03-17T10:15:22.220Z,1.20
2019-03-17T10:17:51.214Z,1.62
2019-03-17T10:20:20.617Z,1.10
2019-03-17T10:22:49.463Z,0.90
2019-03-17T10:25:18.357Z,1.20
2019-03-17T10:27:47.210Z,1.30
2019-03-17T10:30:20.673Z,1.45
2019-03-17T10:32:49.567Z,1.65
2019-03-17T10:35:18.392Z,1.12
2019-03-17T10:37:47.143Z,1.00
2019-03-17T10:40:20.273Z,1.30
2019-03-17T10:42:49.149Z,1.30
2019-03-17T10:45:18.371Z,1.10
2019-03-17T10:47:47.267Z,1.30
2019-03-17T10:50:19.799Z,1.20
2019-03-17T10:52:48.638Z,1.32
2019-03-17T10:55:17.849Z,1.30
2019-03-17T10:57:46.698Z,1.42
2019-03-17T11:00:22.501Z,1.52
2019-03-17T11:02:51.348Z,1.20
2019-03-17T11:05:20.128Z,1.32
2019-03-17T11:07:49.159Z,1.35
2019-03-17T11:10:18.108Z,1.55
2019-03-17T11:12:47.011Z,1.30
2019-03-17T11:15:20.980Z,1.40
2019-03-17T11:17:49.923Z,1.20
2019-03-17T11:20:18.909Z,1.55
2019-03-17T11:22:47.997Z,1.37
2019-03-17T11:25:18.933Z,1.45
2019-03-17T11:27:48.046Z,1.30
2019-03-17T11:30:18.163Z,1.30
2019-03-17T11:32:47.242Z,1.40
2019-03-17T11:35:16.245Z,1.40
2019-03-17T11:37:45.140Z,0.80
2019-03-17T11:43:05.839Z,1.30
2019-03-17T11:45:34.675Z,1.30
2019-03-17T11:48:03.532Z,1.20
2019-03-17T11:50:32.549Z,1.30
2019-03-17T11:53:01.409Z,1.20
2019-03-17T11:55:31.809Z,1.20
2019-03-17T11:58:00.762Z,1.30
2019-03-17T12:00:29.531Z,1.22
2019-03-17T12:02:58.406Z,1.12
2019-03-17T12:05:27.302Z,1.40
2019-03-17T12:07:56.380Z,1.40
2019-03-17T12:10:25.425Z,1.32
2019-03-17T12:12:54.397Z,1.20
2019-03-17T12:15:24.831Z,1.35
2019-03-17T12:17:53.643Z,1.20
2019-03-17T12:20:22.422Z,1.00
2019-03-17T12:22:51.303Z,1.50
2019-03-17T12:25:20.105Z,1.30
2019-03-17T12:27:49.113Z,1.80
2019-03-17T12:30:26.026Z,1.40
2019-03-17T12:32:55.406Z,1.42
2019-03-17T12:35:24.352Z,1.57
2019-03-17T12:37:53.299Z,1.60
2019-03-17T12:40:22.206Z,1.67
2019-03-17T12:42:51.056Z,1.50
2019-03-17T12:45:19.832Z,1.60
2019-03-17T12:47:48.820Z,1.40
2019-03-17T12:50:19.168Z,1.50
2019-03-17T12:52:47.948Z,1.45
2019-03-17T12:55:16.909Z,1.50
2019-03-17T12:57:45.788Z,1.07
2019-03-17T13:00:20.460Z,1.45
2019-03-17T13:02:49.323Z,1.42
2019-03-17T13:05:18.220Z,1.32
2019-03-17T13:07:47.141Z,1.40
2019-03-17T13:10:21.117Z,1.42
2019-03-17T13:12:49.956Z,1.80
2019-03-17T13:15:18.938Z,1.47
2019-03-17T13:17:47.714Z,1.17
2019-03-17T13:20:17.862Z,1.20
2019-03-17T13:22:46.812Z,1.20
2019-03-17T13:25:15.664Z,1.25
2019-03-17T13:27:44.717Z,1.42
2019-03-17T13:30:17.555Z,0.93
2019-03-17T13:32:46.515Z,1.20
2019-03-17T13:35:15.426Z,1.20
2019-03-17T13:37:44.310Z,1.10
2019-03-17T13:40:28.762Z,1.27
2019-03-17T13:42:51.165Z,1.00
2019-03-17T13:45:19.971Z,1.42
2019-03-17T13:47:48.738Z,1.37
2019-03-17T13:50:18.880Z,1.20
2019-03-17T13:52:47.640Z,1.35
2019-03-17T13:55:16.610Z,1.50
2019-03-17T13:57:51.465Z,1.50
2019-03-17T14:00:20.501Z,1.40
2019-03-17T14:02:49.472Z,1.87
2019-03-17T14:05:18.421Z,1.30
2019-03-17T14:07:47.263Z,1.57
2019-03-17T14:10:17.823Z,1.37
2019-03-17T14:12:47.070Z,1.07
2019-03-17T14:15:16.262Z,1.00
2019-03-17T14:17:45.243Z,1.45
2019-03-17T14:20:16.867Z,1.27
2019-03-17T14:22:45.838Z,1.10
2019-03-17T14:25:17.466Z,0.90
2019-03-17T14:27:46.458Z,1.30
2019-03-17T14:30:16.807Z,1.30
2019-03-17T14:32:45.677Z,1.50
2019-03-17T14:35:14.873Z,1.55
2019-03-17T14:37:43.891Z,1.20
2019-03-17T14:40:16.678Z,1.55
2019-03-17T14:42:47.370Z,1.52
2019-03-17T14:45:17.242Z,1.27
2019-03-17T14:47:46.146Z,1.30
2019-03-17T14:50:23.762Z,1.65
2019-03-17T14:52:52.736Z,1.30
2019-03-17T14:55:21.603Z,1.32
2019-03-17T14:57:50.826Z,1.20
2019-03-17T15:00:21.669Z,1.30
2019-03-17T15:02:50.600Z,1.10
2019-03-17T15:05:19.798Z,1.20
2019-03-17T15:07:48.602Z,1.10
2019-03-17T15:10:23.514Z,1.10
2019-03-17T15:12:52.375Z,1.32
2019-03-17T15:15:22.748Z,1.20
2019-03-17T15:17:51.924Z,1.10
2019-03-17T15:20:21.917Z,0.82
2019-03-17T15:22:50.764Z,0.98
2019-03-17T15:25:19.889Z,1.12
2019-03-17T15:27:48.792Z,1.07
2019-03-17T15:30:20.158Z,0.78
2019-03-17T15:32:49.109Z,0.95
2019-03-17T15:35:17.978Z,1.20
2019-03-17T15:37:46.863Z,0.90
2019-03-17T15:40:18.113Z,1.45
2019-03-17T15:42:47.176Z,1.75
2019-03-17T15:45:19.911Z,1.35
2019-03-17T15:47:48.974Z,1.40
2019-03-17T15:50:29.209Z,1.02
2019-03-17T15:52:58.214Z,1.27
2019-03-17T15:55:27.008Z,1.00
2019-03-17T15:57:55.975Z,1.77
2019-03-17T16:00:26.808Z,1.27
2019-03-17T16:02:56.131Z,1.40
2019-03-17T16:05:25.006Z,1.40
2019-03-17T16:07:54.039Z,0.90
2019-03-17T16:10:53.132Z,1.20
2019-03-17T16:13:22.355Z,1.22
2019-03-17T16:15:51.450Z,1.30
2019-03-17T16:18:20.443Z,1.00
2019-03-17T16:20:49.508Z,1.00
2019-03-17T16:23:18.523Z,1.20
2019-03-17T16:25:50.366Z,0.95
2019-03-17T16:28:18.081Z,0.90
2019-03-17T16:30:47.096Z,0.95
2019-03-17T16:33:16.272Z,1.10
2019-03-17T16:35:46.355Z,1.02
2019-03-17T16:38:15.340Z,1.20
2019-03-17T16:40:44.312Z,1.20
2019-03-17T16:43:13.182Z,1.12
2019-03-17T16:45:42.131Z,1.00
2019-03-17T16:48:10.993Z,0.82
2019-03-17T16:50:40.098Z,0.90
2019-03-17T16:53:08.993Z,1.60
2019-03-17T16:55:37.915Z,1.12
2019-03-17T16:58:07.170Z,1.62
2019-03-17T17:00:36.253Z,0.90
2019-03-17T17:03:05.070Z,1.10
2019-03-17T17:05:35.235Z,1.30
2019-03-17T17:08:04.249Z,1.35
2019-03-17T17:10:33.178Z,0.98
2019-03-17T17:13:02.127Z,1.10
2019-03-17T17:15:33.320Z,1.20
2019-03-17T17:18:02.248Z,1.47
2019-03-17T17:20:32.354Z,1.00
2019-03-17T17:23:01.405Z,1.10
2019-03-17T17:25:30.291Z,0.80
2019-03-17T17:27:59.408Z,1.15
2019-03-17T17:30:28.290Z,1.00
2019-03-17T17:32:57.183Z,1.00
2019-03-17T17:35:26.185Z,0.85
2019-03-17T17:37:55.127Z,1.20
2019-03-17T17:40:27.712Z,1.15
2019-03-17T17:42:56.774Z,0.80
2019-03-17T17:45:26.173Z,1.20
2019-03-17T17:47:55.205Z,0.90
2019-03-17T17:50:44.993Z,0.90
2019-03-17T17:53:14.115Z,1.40
2019-03-17T17:55:43.121Z,3.30
2019-03-17T17:58:12.139Z,3.12
2019-03-17T18:00:45.635Z,3.10
2019-03-17T18:03:14.447Z,2.62
2019-03-17T18:05:43.486Z,1.12
2019-03-17T18:08:12.444Z,1.30
2019-03-17T18:10:41.353Z,1.00
2019-03-17T18:13:10.376Z,1.32
2019-03-17T18:15:39.258Z,1.70
2019-03-17T18:18:08.239Z,1.30
2019-03-17T18:20:37.290Z,1.27
2019-03-17T18:23:17.311Z,1.40
2019-03-17T18:25:36.651Z,1.72
2019-03-17T18:28:05.871Z,1.60
2019-03-17T18:30:34.717Z,1.50
2019-03-17T18:33:03.572Z,1.47
2019-03-17T18:35:32.552Z,1.72
2019-03-17T18:38:01.373Z,1.27
2019-03-17T18:40:30.184Z,1.75
2019-03-17T18:42:59.243Z,1.40
2019-03-17T18:45:32.385Z,1.40
2019-03-17T18:48:01.313Z,1.90
2019-03-17T18:50:30.255Z,1.67
2019-03-17T18:52:59.075Z,1.40
2019-03-17T18:55:27.848Z,1.40
2019-03-17T18:57:56.837Z,1.80
2019-03-17T19:00:26.641Z,1.40
2019-03-17T19:02:55.488Z,1.80
2019-03-17T19:05:24.368Z,1.80
2019-03-17T19:07:53.356Z,1.57
2019-03-17T19:10:22.310Z,1.87
2019-03-17T19:12:51.430Z,1.50
2019-03-17T19:15:22.191Z,1.77
2019-03-17T19:17:50.964Z,1.45
2019-03-17T19:20:24.355Z,1.60
2019-03-17T19:22:53.145Z,1.70
2019-03-17T19:25:26.613Z,1.50
2019-03-17T19:27:55.763Z,1.57
2019-03-17T19:30:24.653Z,2.15
2019-03-17T19:32:53.474Z,1.57
2019-03-17T19:35:22.383Z,1.90
2019-03-17T19:37:51.644Z,1.87
2019-03-17T19:40:25.166Z,1.70
2019-03-17T19:42:59.082Z,1.32
2019-03-17T19:45:24.645Z,1.90
2019-03-17T19:47:53.515Z,1.70
2019-03-17T19:50:23.327Z,1.82
2019-03-17T19:52:52.174Z,2.00
2019-03-17T19:55:21.007Z,2.00
2019-03-17T19:57:50.049Z,1.72
2019-03-17T20:00:22.796Z,1.45
2019-03-17T20:02:51.666Z,2.10
2019-03-17T20:05:20.647Z,1.92
2019-03-17T20:10:22.100Z,1.12
2019-03-17T20:12:50.939Z,1.00
2019-03-17T20:15:19.829Z,1.02
2019-03-17T20:17:48.831Z,1.10
2019-03-17T20:20:17.913Z,1.07
2019-03-17T20:22:46.770Z,1.20
2019-03-17T20:25:15.765Z,1.15
2019-03-17T20:27:44.639Z,1.42
2019-03-17T20:30:14.783Z,1.50
2019-03-17T20:32:43.776Z,1.10
2019-03-17T20:35:13.726Z,1.42
2019-03-17T20:37:42.672Z,1.20
2019-03-17T20:40:14.067Z,1.90
2019-03-17T20:42:42.975Z,1.12
2019-03-17T20:45:13.594Z,1.50
2019-03-17T20:47:42.708Z,1.27
2019-03-17T20:50:18.731Z,1.30
2019-03-17T20:52:48.156Z,1.50
2019-03-17T20:55:17.047Z,1.55
2019-03-17T20:57:45.956Z,1.60
2019-03-17T21:00:15.928Z,1.50
2019-03-17T21:02:44.839Z,1.47
2019-03-17T21:05:14.092Z,1.50
2019-03-17T21:07:43.120Z,1.60
2019-03-17T21:10:17.027Z,1.85
2019-03-17T21:12:46.145Z,1.55
2019-03-17T21:15:16.340Z,1.50
2019-03-17T21:17:45.255Z,2.58
2019-03-17T21:20:22.430Z,1.27
2019-03-17T21:22:51.273Z,1.40
2019-03-17T21:25:20.146Z,1.40
2019-03-17T21:27:49.157Z,1.42
2019-03-17T21:30:26.270Z,1.95
2019-03-17T21:32:55.493Z,1.35
2019-03-17T21:35:24.383Z,1.22
2019-03-17T21:37:53.232Z,1.32
2019-03-17T21:40:22.446Z,1.40
2019-03-17T21:42:51.542Z,1.40
2019-03-17T21:45:20.414Z,1.32
2019-03-17T21:47:49.444Z,1.20
2019-03-17T21:50:19.327Z,1.40
2019-03-17T21:52:48.176Z,1.40
2019-03-17T21:55:17.184Z,1.20
2019-03-17T21:57:46.277Z,1.35
2019-03-17T22:00:16.641Z,1.35
2019-03-17T22:02:45.657Z,1.20
2019-03-17T22:05:14.699Z,1.37
2019-03-17T22:07:49.988Z,1.20
2019-03-17T22:10:21.690Z,1.30
2019-03-17T22:12:50.681Z,1.35
2019-03-17T22:15:19.700Z,1.15
2019-03-17T22:17:48.809Z,1.75
2019-03-17T22:20:17.963Z,1.25
2019-03-17T22:22:46.854Z,1.22
2019-03-17T22:25:16.503Z,1.20
2019-03-17T22:27:45.349Z,1.10
2019-03-17T22:30:15.506Z,1.30
2019-03-17T22:32:44.525Z,1.00
2019-03-17T22:35:13.527Z,1.10
2019-03-17T22:37:42.429Z,1.00
2019-03-17T22:40:12.915Z,1.35
2019-03-17T22:42:41.783Z,1.40
2019-03-17T22:45:30.241Z,1.27
2019-03-17T22:47:59.203Z,1.45
2019-03-17T22:50:28.331Z,1.40
2019-03-17T22:52:57.711Z,1.35
2019-03-17T22:55:26.724Z,1.20
2019-03-17T22:57:59.159Z,1.50
2019-03-17T23:00:36.344Z,1.50
2019-03-17T23:03:05.514Z,1.42
2019-03-17T23:05:53.800Z,1.20
2019-03-17T23:08:22.806Z,1.52
2019-03-17T23:10:51.918Z,1.27
2019-03-17T23:13:20.876Z,1.00
2019-03-17T23:15:49.980Z,1.02
2019-03-17T23:18:18.842Z,1.15
2019-03-17T23:20:47.838Z,1.70
2019-03-17T23:23:16.703Z,1.57
2019-03-17T23:25:45.562Z,1.10
2019-03-17T23:28:14.572Z,1.30
2019-03-17T23:30:43.448Z,1.70
2019-03-17T23:33:12.390Z,1.47
2019-03-17T23:35:41.618Z,1.22
2019-03-17T23:38:10.459Z,1.20
2019-03-17T23:40:39.570Z,1.62
2019-03-17T23:43:08.586Z,1.65
2019-03-17T23:45:37.420Z,1.45
2019-03-17T23:48:06.292Z,1.30
2019-03-17T23:50:35.273Z,1.40
2019-03-17T23:53:04.131Z,1.50
2019-03-17T23:55:32.990Z,1.85
2019-03-17T23:58:01.993Z,1.72
